createdAt,value
2023-02-28T00:01:33.529Z,2.40
2023-02-28T00:04:05.400Z,2.33
2023-02-28T00:06:38.847Z,2.47
2023-02-28T00:09:10.181Z,2.27
2023-02-28T00:11:39.686Z,1.73
2023-02-28T00:14:13.249Z,2.87
2023-02-28T00:16:42.668Z,2.23
2023-02-28T00:19:13.420Z,2.40
2023-02-28T00:21:46.174Z,2.37
2023-02-28T00:24:17.879Z,2.93
2023-02-28T00:26:49.830Z,2.33
2023-02-28T00:29:20.673Z,2.80
2023-02-28T00:31:52.838Z,1.90
2023-02-28T00:34:20.182Z,2.27
2023-02-28T00:36:51.591Z,2.10
2023-02-28T00:39:23.041Z,2.30
2023-02-28T00:41:54.539Z,2.27
2023-02-28T00:44:25.675Z,2.70
2023-02-28T00:46:59.099Z,2.23
2023-02-28T00:49:28.011Z,2.10
2023-02-28T00:52:02.150Z,2.13
2023-02-28T00:54:30.602Z,2.67
2023-02-28T00:57:01.006Z,1.90
2023-02-28T00:59:32.511Z,2.10
2023-02-28T01:02:07.189Z,2.00
2023-02-28T01:04:38.347Z,2.07
2023-02-28T01:07:08.837Z,2.30
2023-02-28T01:09:38.385Z,2.50
2023-02-28T01:12:07.524Z,1.80
2023-02-28T01:14:35.577Z,1.70
2023-02-28T01:17:06.337Z,1.77
2023-02-28T01:19:39.693Z,2.30
2023-02-28T01:22:14.380Z,2.00
2023-02-28T01:24:48.401Z,1.57
2023-02-28T01:27:19.552Z,2.13
2023-02-28T01:29:52.996Z,1.70
2023-02-28T01:32:24.560Z,1.60
2023-02-28T01:34:52.845Z,1.70
2023-02-28T01:37:24.391Z,1.97
2023-02-28T01:39:53.677Z,1.67
2023-02-28T01:42:22.081Z,1.90
2023-02-28T01:45:19.062Z,2.13
2023-02-28T01:50:49.055Z,1.67
2023-02-28T01:53:29.520Z,1.63
2023-02-28T01:56:01.615Z,1.77
2023-02-28T01:58:34.569Z,1.83
2023-02-28T02:01:07.040Z,1.80
2023-02-28T02:03:43.533Z,1.70
2023-02-28T02:08:58.247Z,2.00
2023-02-28T02:11:29.891Z,1.73
2023-02-28T02:14:14.542Z,1.40
2023-02-28T02:16:53.262Z,1.23
2023-02-28T02:19:55.767Z,1.90
2023-02-28T02:22:56.687Z,2.30
2023-02-28T02:25:53.984Z,1.63
2023-02-28T02:29:03.039Z,1.70
2023-02-28T02:32:09.884Z,1.93
2023-02-28T02:35:01.187Z,1.43
2023-02-28T02:37:55.759Z,1.47
2023-02-28T02:40:51.425Z,1.67
2023-02-28T02:43:26.581Z,1.20
2023-02-28T02:46:23.316Z,1.53
2023-02-28T02:48:57.882Z,1.40
2023-02-28T02:51:25.760Z,1.70
2023-02-28T02:53:59.463Z,1.50
2023-02-28T02:56:36.694Z,1.27
2023-02-28T02:59:11.120Z,1.40
2023-02-28T03:01:44.902Z,1.50
2023-02-28T03:04:20.214Z,2.07
2023-02-28T03:06:49.303Z,1.30
2023-02-28T03:09:20.222Z,1.70
2023-02-28T03:11:50.765Z,1.40
2023-02-28T03:14:50.768Z,1.40
2023-02-28T03:17:51.591Z,1.83
2023-02-28T03:20:42.195Z,1.63
2023-02-28T03:23:27.863Z,2.10
2023-02-28T03:26:16.321Z,1.70
2023-02-28T03:28:55.732Z,1.20
2023-02-28T03:32:03.484Z,1.53
2023-02-28T03:34:45.887Z,1.97
2023-02-28T03:37:27.618Z,1.60
2023-02-28T03:40:01.395Z,1.47
2023-02-28T03:42:42.530Z,1.70
2023-02-28T03:45:24.938Z,1.50
2023-02-28T03:48:24.184Z,1.83
2023-02-28T03:50:57.531Z,1.60
2023-02-28T03:53:49.199Z,1.50
2023-02-28T03:56:40.767Z,1.33
2023-02-28T03:59:25.438Z,1.80
2023-02-28T04:01:53.542Z,1.43
2023-02-28T04:04:26.589Z,1.47
2023-02-28T04:07:10.602Z,1.63
2023-02-28T04:09:44.692Z,2.20
2023-02-28T04:12:15.002Z,1.53
2023-02-28T04:14:44.906Z,1.27
2023-02-28T04:17:13.928Z,1.50
2023-02-28T04:19:41.735Z,1.37
2023-02-28T04:22:12.440Z,1.80
2023-02-28T04:24:44.930Z,1.20
2023-02-28T04:27:17.210Z,1.50
2023-02-28T04:29:47.553Z,1.97
2023-02-28T04:32:15.532Z,1.87
2023-02-28T04:34:48.923Z,1.77
2023-02-28T04:37:24.692Z,1.40
2023-02-28T04:39:58.486Z,1.93
2023-02-28T04:42:30.487Z,1.80
2023-02-28T04:45:02.450Z,1.80
2023-02-28T04:47:31.578Z,1.90
2023-02-28T04:50:01.227Z,1.57
2023-02-28T04:52:31.329Z,1.83
2023-02-28T04:55:03.319Z,1.70
2023-02-28T04:57:32.581Z,1.77
2023-02-28T05:00:02.850Z,1.67
2023-02-28T05:02:35.617Z,1.50
2023-02-28T05:05:08.237Z,1.57
2023-02-28T05:07:40.675Z,2.13
2023-02-28T05:10:10.222Z,1.60
2023-02-28T05:12:40.720Z,1.97
2023-02-28T05:15:14.969Z,1.57
2023-02-28T05:17:47.106Z,1.87
2023-02-28T05:20:16.506Z,1.40
2023-02-28T05:22:46.522Z,1.70
2023-02-28T05:25:23.602Z,1.80
2023-02-28T05:27:55.074Z,1.30
2023-02-28T05:30:26.670Z,1.53
2023-02-28T05:32:57.579Z,1.17
2023-02-28T05:35:28.681Z,1.87
2023-02-28T05:37:59.612Z,1.40
2023-02-28T05:40:29.832Z,1.60
2023-02-28T05:43:02.394Z,1.67
2023-02-28T05:45:35.365Z,1.53
2023-02-28T05:48:07.154Z,1.57
2023-02-28T05:50:40.033Z,1.23
2023-02-28T05:53:09.476Z,1.40
2023-02-28T05:55:39.837Z,1.30
2023-02-28T05:58:13.355Z,1.70
2023-02-28T06:00:46.133Z,1.67
2023-02-28T06:03:16.071Z,1.80
2023-02-28T06:05:47.830Z,1.77
2023-02-28T06:08:16.509Z,1.90
2023-02-28T06:10:47.056Z,1.40
2023-02-28T06:13:19.066Z,1.43
2023-02-28T06:15:49.959Z,1.20
2023-02-28T06:18:24.218Z,1.20
2023-02-28T06:20:59.173Z,1.30
2023-02-28T06:23:30.599Z,1.50
2023-02-28T06:26:04.080Z,1.40
2023-02-28T06:28:33.421Z,1.53
2023-02-28T06:31:11.296Z,1.40
2023-02-28T06:33:42.108Z,1.33
2023-02-28T06:36:12.428Z,1.43
2023-02-28T06:38:44.840Z,1.77
2023-02-28T06:41:20.887Z,1.57
2023-02-28T06:44:10.784Z,1.10
2023-02-28T06:46:39.895Z,1.60
2023-02-28T06:49:12.448Z,1.50
2023-02-28T06:51:46.249Z,1.70
2023-02-28T06:54:17.099Z,2.00
2023-02-28T06:56:49.805Z,1.60
2023-02-28T06:59:26.859Z,1.70
2023-02-28T07:01:58.389Z,1.70
2023-02-28T07:04:29.850Z,1.73
2023-02-28T07:07:00.897Z,1.63
2023-02-28T07:09:33.521Z,2.00
2023-02-28T07:12:04.566Z,1.97
2023-02-28T07:14:32.924Z,1.63
2023-02-28T07:17:04.721Z,2.00
2023-02-28T07:19:34.724Z,1.50
2023-02-28T07:22:03.889Z,1.80
2023-02-28T07:24:34.284Z,2.00
2023-02-28T07:27:05.443Z,1.90
2023-02-28T07:29:36.902Z,1.83
2023-02-28T07:32:08.316Z,1.70
2023-02-28T07:34:44.285Z,1.80
2023-02-28T07:37:14.039Z,8.73
2023-02-28T07:39:45.499Z,5.73
2023-02-28T07:42:16.964Z,6.90
2023-02-28T07:44:49.184Z,5.70
2023-02-28T07:47:19.970Z,5.53
2023-02-28T07:49:50.730Z,5.53
2023-02-28T07:52:30.475Z,5.53
2023-02-28T07:55:02.857Z,4.50
2023-02-28T07:57:38.905Z,4.97
2023-02-28T08:00:10.962Z,4.83
2023-02-28T08:02:40.311Z,4.63
2023-02-28T08:05:13.310Z,3.43
2023-02-28T08:07:44.140Z,4.17
2023-02-28T08:10:13.657Z,3.93
2023-02-28T08:12:44.607Z,3.87
2023-02-28T08:15:11.738Z,3.60
2023-02-28T08:17:42.273Z,2.93
2023-02-28T08:20:11.874Z,3.00
2023-02-28T08:22:46.096Z,3.23
2023-02-28T08:25:15.795Z,2.70
2023-02-28T08:27:45.311Z,3.13
2023-02-28T08:30:17.608Z,2.67
2023-02-28T08:32:48.503Z,2.13
2023-02-28T08:35:26.972Z,2.50
2023-02-28T08:37:56.935Z,2.87
2023-02-28T08:40:30.181Z,2.37
2023-02-28T08:43:03.052Z,2.30
2023-02-28T08:45:35.112Z,2.57
2023-02-28T08:48:09.845Z,2.40
2023-02-28T08:50:37.954Z,2.07
2023-02-28T08:53:08.526Z,1.97
2023-02-28T08:55:38.862Z,2.00
2023-02-28T08:58:10.304Z,2.17
2023-02-28T09:00:42.959Z,2.10
2023-02-28T09:03:15.104Z,2.43
2023-02-28T09:06:00.844Z,1.90
2023-02-28T09:08:33.803Z,1.97
2023-02-28T09:11:04.994Z,1.97
2023-02-28T09:13:38.108Z,1.97
2023-02-28T09:16:13.014Z,1.80
2023-02-28T09:18:42.109Z,1.90
2023-02-28T09:21:23.190Z,2.23
2023-02-28T09:23:54.815Z,1.50
2023-02-28T09:26:34.666Z,1.60
2023-02-28T09:29:13.143Z,1.53
2023-02-28T09:31:42.199Z,1.50
2023-02-28T09:34:13.563Z,1.40
2023-02-28T09:36:45.622Z,1.30
2023-02-28T09:42:01.144Z,1.30
2023-02-28T09:44:50.273Z,1.60
2023-02-28T09:47:42.242Z,1.10
2023-02-28T09:50:31.201Z,1.20
2023-02-28T09:53:05.236Z,0.97
2023-02-28T09:55:53.199Z,1.40
2023-02-28T09:59:12.011Z,1.43
2023-02-28T10:01:59.803Z,0.97
2023-02-28T10:04:44.818Z,1.60
2023-02-28T10:07:24.410Z,1.00
2023-02-28T10:10:01.277Z,1.23
2023-02-28T10:12:40.087Z,1.30
2023-02-28T10:15:10.226Z,1.10
2023-02-28T10:17:55.698Z,1.20
2023-02-28T10:20:42.303Z,0.80
2023-02-28T10:23:37.878Z,1.13
2023-02-28T10:26:17.018Z,0.87
2023-02-28T10:28:47.792Z,1.50
2023-02-28T10:31:26.277Z,1.07
2023-02-28T10:34:01.607Z,1.00
2023-02-28T10:36:34.091Z,0.97
2023-02-28T10:39:04.657Z,1.30
2023-02-28T10:41:45.060Z,0.90
2023-02-28T10:44:27.612Z,0.80
2023-02-28T10:46:57.073Z,0.80
2023-02-28T10:49:31.120Z,1.03
2023-02-28T10:52:04.476Z,0.80
2023-02-28T10:54:41.028Z,0.80
2023-02-28T10:57:29.682Z,0.93
2023-02-28T11:03:34.944Z,0.80
2023-02-28T11:06:20.755Z,0.63
2023-02-28T11:09:36.086Z,0.50
2023-02-28T11:12:22.413Z,0.60
2023-02-28T11:15:06.783Z,0.63
2023-02-28T11:17:35.113Z,0.60
2023-02-28T11:20:15.613Z,0.60
2023-02-28T11:22:57.071Z,0.83
2023-02-28T11:25:30.825Z,0.70
2023-02-28T11:28:12.716Z,0.83
2023-02-28T11:30:42.100Z,0.90
2023-02-28T11:33:35.351Z,0.70
2023-02-28T11:36:17.497Z,0.90
2023-02-28T11:38:55.408Z,0.70
2023-02-28T11:41:44.835Z,0.90
2023-02-28T11:44:32.599Z,0.60
2023-02-28T11:47:16.595Z,1.00
2023-02-28T11:49:55.923Z,0.80
2023-02-28T11:53:01.611Z,0.80
2023-02-28T11:55:57.315Z,1.20
2023-02-28T11:58:38.298Z,0.70
2023-02-28T12:01:27.925Z,0.73
2023-02-28T12:04:27.172Z,1.10
2023-02-28T12:07:19.776Z,1.00
2023-02-28T12:10:22.747Z,1.20
2023-02-28T12:13:23.107Z,0.70
2023-02-28T12:16:23.398Z,1.00
2023-02-28T12:19:18.119Z,0.83
2023-02-28T12:22:10.616Z,1.00
2023-02-28T12:25:00.930Z,1.20
2023-02-28T12:27:40.308Z,0.97
2023-02-28T12:30:38.995Z,0.93
2023-02-28T12:33:25.444Z,0.87
2023-02-28T12:36:04.584Z,1.30
2023-02-28T12:38:58.086Z,0.93
2023-02-28T12:41:39.895Z,0.93
2023-02-28T12:44:29.505Z,0.70
2023-02-28T12:47:08.812Z,1.10
2023-02-28T12:49:48.054Z,0.80
2023-02-28T12:55:52.641Z,0.80
2023-02-28T12:58:46.396Z,1.10
2023-02-28T13:01:50.645Z,1.07
2023-02-28T13:04:49.812Z,0.90
2023-02-28T13:07:57.388Z,0.73
2023-02-28T13:10:31.524Z,0.90
2023-02-28T13:13:04.439Z,1.30
2023-02-28T13:15:37.116Z,1.30
2023-02-28T13:18:09.075Z,1.20
2023-02-28T13:20:40.430Z,1.00
2023-02-28T13:24:00.877Z,0.87
2023-02-28T13:27:01.420Z,0.87
2023-02-28T13:29:54.192Z,1.30
2023-02-28T13:32:31.488Z,1.20
2023-02-28T13:35:03.398Z,1.70
2023-02-28T13:37:51.993Z,1.10
2023-02-28T13:40:45.151Z,1.20
2023-02-28T13:43:53.880Z,1.20
2023-02-28T13:46:24.025Z,0.90
2023-02-28T13:48:56.191Z,0.93
2023-02-28T13:51:48.503Z,1.00
2023-02-28T13:54:58.488Z,0.97
2023-02-28T13:58:09.164Z,0.93
2023-02-28T14:01:15.650Z,0.80
2023-02-28T14:04:09.804Z,0.90
2023-02-28T14:06:42.541Z,0.93
2023-02-28T14:09:39.599Z,1.07
2023-02-28T14:12:46.732Z,0.80
2023-02-28T14:15:59.852Z,0.90
2023-02-28T14:18:39.309Z,1.30
2023-02-28T14:21:58.861Z,0.80
2023-02-28T14:24:56.989Z,1.00
2023-02-28T14:27:53.439Z,1.10
2023-02-28T14:31:07.569Z,0.90
2023-02-28T14:33:57.751Z,1.60
2023-02-28T14:36:37.740Z,1.20
2023-02-28T14:39:23.518Z,0.80
2023-02-28T14:41:55.335Z,0.83
2023-02-28T14:44:30.330Z,0.70
2023-02-28T14:47:12.166Z,0.90
2023-02-28T14:49:47.680Z,0.80
2023-02-28T14:52:25.924Z,1.00
2023-02-28T14:55:17.311Z,1.00
2023-02-28T14:58:04.350Z,0.70
2023-02-28T15:00:38.779Z,0.77
2023-02-28T15:03:40.798Z,0.60
2023-02-28T15:09:25.318Z,1.17
2023-02-28T15:11:57.793Z,0.70
2023-02-28T15:14:31.967Z,0.60
2023-02-28T15:17:06.620Z,0.70
2023-02-28T15:19:49.841Z,0.90
2023-02-28T15:22:38.573Z,0.70
2023-02-28T15:25:09.715Z,0.70
2023-02-28T15:27:58.395Z,0.70
2023-02-28T15:30:36.788Z,0.90
2023-02-28T15:33:30.307Z,0.93
2023-02-28T15:36:16.262Z,0.67
2023-02-28T15:38:50.914Z,0.53
2023-02-28T15:41:44.094Z,1.00
2023-02-28T15:44:39.598Z,0.80
2023-02-28T15:47:21.458Z,0.63
2023-02-28T15:50:26.883Z,0.63
2023-02-28T15:52:56.368Z,1.00
2023-02-28T15:55:32.837Z,0.93
2023-02-28T15:58:05.837Z,1.07
2023-02-28T16:00:36.473Z,0.90
2023-02-28T16:03:23.785Z,0.70
2023-02-28T16:06:13.573Z,1.10
2023-02-28T16:08:50.868Z,0.73
2023-02-28T16:11:21.071Z,0.70
2023-02-28T16:13:48.127Z,0.90
2023-02-28T16:16:23.276Z,0.63
2023-02-28T16:18:55.434Z,0.77
2023-02-28T16:21:26.203Z,0.83
2023-02-28T16:23:58.499Z,0.70
2023-02-28T16:26:32.589Z,0.83
2023-02-28T16:28:59.636Z,1.07
2023-02-28T16:31:30.037Z,0.97
2023-02-28T16:33:59.421Z,0.70
2023-02-28T16:36:30.259Z,0.73
2023-02-28T16:38:58.243Z,1.00
2023-02-28T16:41:32.450Z,0.83
2023-02-28T16:44:01.987Z,0.90
2023-02-28T16:46:40.319Z,0.90
2023-02-28T16:49:14.261Z,0.90
2023-02-28T16:51:45.442Z,1.20
2023-02-28T16:54:33.522Z,0.83
2023-02-28T16:57:06.523Z,0.80
2023-02-28T16:59:38.032Z,0.90
2023-02-28T17:02:17.711Z,0.60
2023-02-28T17:04:48.193Z,0.80
2023-02-28T17:07:20.504Z,0.90
2023-02-28T17:09:52.562Z,0.90
2023-02-28T17:12:21.671Z,0.70
2023-02-28T17:14:52.833Z,1.33
2023-02-28T17:17:25.431Z,0.93
2023-02-28T17:20:05.714Z,1.00
2023-02-28T17:22:35.965Z,1.00
2023-02-28T17:25:27.317Z,0.87
2023-02-28T17:27:57.175Z,0.77
2023-02-28T17:30:30.810Z,0.70
2023-02-28T17:33:01.205Z,1.00
2023-02-28T17:35:35.371Z,1.10
2023-02-28T17:38:08.411Z,0.80
2023-02-28T17:43:21.942Z,0.63
2023-02-28T17:45:54.251Z,1.40
2023-02-28T17:48:23.763Z,0.80
2023-02-28T17:50:55.308Z,1.13
2023-02-28T17:53:27.013Z,0.83
2023-02-28T17:55:58.645Z,0.97
2023-02-28T17:58:29.132Z,1.07
2023-02-28T18:00:57.436Z,1.20
2023-02-28T18:03:29.611Z,1.10
2023-02-28T18:06:02.132Z,1.00
2023-02-28T18:08:30.248Z,1.00
2023-02-28T18:11:01.960Z,1.13
2023-02-28T18:13:32.353Z,1.10
2023-02-28T18:16:07.191Z,1.30
2023-02-28T18:18:39.720Z,1.00
2023-02-28T18:21:12.000Z,0.80
2023-02-28T18:23:50.715Z,1.40
2023-02-28T18:26:22.760Z,1.10
2023-02-28T18:28:53.479Z,0.97
2023-02-28T18:31:25.266Z,1.00
2023-02-28T18:33:55.650Z,1.10
2023-02-28T18:36:29.165Z,0.90
2023-02-28T18:38:59.907Z,1.00
2023-02-28T18:41:29.875Z,1.20
2023-02-28T18:44:03.071Z,1.20
2023-02-28T18:46:41.850Z,1.20
2023-02-28T18:49:10.683Z,1.30
2023-02-28T18:51:41.304Z,1.10
2023-02-28T18:54:12.397Z,1.27
2023-02-28T18:59:28.530Z,1.00
2023-02-28T19:02:03.988Z,1.23
2023-02-28T19:04:36.176Z,1.00
2023-02-28T19:07:05.133Z,1.33
2023-02-28T19:09:35.172Z,1.30
2023-02-28T19:12:06.670Z,1.23
2023-02-28T19:14:36.254Z,1.30
2023-02-28T19:17:06.786Z,1.10
2023-02-28T19:19:38.146Z,1.50
2023-02-28T19:22:19.488Z,1.10
2023-02-28T19:24:51.948Z,1.03
2023-02-28T19:27:20.327Z,1.33
2023-02-28T19:29:56.155Z,1.50
2023-02-28T19:32:26.836Z,1.20
2023-02-28T19:34:58.230Z,1.60
2023-02-28T19:37:28.868Z,1.17
2023-02-28T19:40:04.727Z,1.20
2023-02-28T19:42:36.836Z,1.20
2023-02-28T19:45:10.834Z,1.40
2023-02-28T19:47:51.470Z,1.60
2023-02-28T19:50:20.956Z,1.33
2023-02-28T19:52:57.073Z,1.70
2023-02-28T19:55:29.838Z,1.20
2023-02-28T19:58:05.449Z,1.30
2023-02-28T20:00:34.490Z,1.30
2023-02-28T20:03:05.773Z,1.20
2023-02-28T20:05:35.315Z,1.33
2023-02-28T20:08:07.094Z,1.30
2023-02-28T20:10:36.587Z,1.30
2023-02-28T20:13:05.107Z,1.10
2023-02-28T20:15:36.023Z,1.30
2023-02-28T20:18:07.383Z,1.70
2023-02-28T20:20:46.846Z,1.30
2023-02-28T20:23:15.660Z,1.50
2023-02-28T20:25:47.246Z,1.50
2023-02-28T20:28:14.074Z,1.73
2023-02-28T20:30:47.744Z,1.50
2023-02-28T20:33:23.053Z,2.03
2023-02-28T20:35:59.201Z,1.40
2023-02-28T20:38:30.225Z,1.40
2023-02-28T20:41:03.981Z,1.77
2023-02-28T20:43:33.511Z,1.90
2023-02-28T20:46:05.883Z,1.50
2023-02-28T20:48:41.714Z,1.60
2023-02-28T20:51:11.264Z,1.67
2023-02-28T20:53:40.736Z,1.77
2023-02-28T20:56:19.473Z,1.60
2023-02-28T20:58:51.794Z,1.70
2023-02-28T21:04:09.305Z,2.10
2023-02-28T21:07:06.051Z,1.90
2023-02-28T21:09:37.537Z,1.83
2023-02-28T21:12:07.626Z,2.07
2023-02-28T21:14:35.668Z,1.77
2023-02-28T21:17:06.818Z,2.03
2023-02-28T21:19:37.099Z,1.97
2023-02-28T21:22:09.479Z,1.60
2023-02-28T21:24:39.392Z,2.13
2023-02-28T21:27:11.938Z,1.80
2023-02-28T21:29:42.395Z,1.60
2023-02-28T21:32:14.514Z,2.00
2023-02-28T21:34:43.593Z,2.10
2023-02-28T21:37:12.201Z,1.53
2023-02-28T21:39:42.644Z,2.10
2023-02-28T21:42:16.085Z,1.57
2023-02-28T21:44:46.824Z,1.60
2023-02-28T21:47:18.113Z,1.80
2023-02-28T21:49:48.590Z,1.70
2023-02-28T21:52:26.459Z,1.60
2023-02-28T21:54:57.532Z,1.80
2023-02-28T21:57:28.134Z,1.60
2023-02-28T22:00:00.272Z,1.53
2023-02-28T22:02:30.618Z,1.93
2023-02-28T22:05:07.271Z,1.90
2023-02-28T22:07:37.407Z,1.70
2023-02-28T22:10:07.706Z,1.50
2023-02-28T22:12:39.597Z,1.43
2023-02-28T22:15:15.264Z,1.70
2023-02-28T22:17:45.805Z,1.77
2023-02-28T22:20:17.488Z,1.20
2023-02-28T22:22:50.985Z,2.40
2023-02-28T22:25:23.162Z,1.60
2023-02-28T22:27:54.402Z,1.50
2023-02-28T22:30:24.013Z,1.60
2023-02-28T22:32:55.360Z,1.50
2023-02-28T22:35:25.779Z,1.47
2023-02-28T22:37:54.826Z,1.80
2023-02-28T22:40:35.703Z,1.70
2023-02-28T22:45:49.660Z,1.60
2023-02-28T22:48:16.690Z,1.50
2023-02-28T22:50:48.413Z,1.80
2023-02-28T22:53:16.468Z,1.43
2023-02-28T22:55:44.834Z,1.50
2023-02-28T22:58:16.636Z,1.60
2023-02-28T23:00:47.625Z,1.53
2023-02-28T23:03:17.770Z,1.73
2023-02-28T23:05:45.543Z,1.57
2023-02-28T23:08:13.696Z,1.60
2023-02-28T23:10:46.170Z,1.50
2023-02-28T23:13:15.502Z,1.60
2023-02-28T23:15:50.228Z,1.53
2023-02-28T23:18:19.817Z,1.70
2023-02-28T23:20:49.301Z,1.30
2023-02-28T23:23:17.208Z,1.57
2023-02-28T23:25:46.254Z,1.67
2023-02-28T23:28:14.400Z,1.77
2023-02-28T23:30:44.729Z,1.30
2023-02-28T23:33:15.419Z,1.47
2023-02-28T23:35:48.096Z,1.50
2023-02-28T23:38:17.732Z,1.50
2023-02-28T23:40:48.198Z,1.47
2023-02-28T23:43:21.159Z,1.50
2023-02-28T23:46:00.389Z,1.70
2023-02-28T23:48:29.047Z,2.00
2023-02-28T23:51:17.218Z,2.00
2023-02-28T23:53:49.962Z,1.60
2023-02-28T23:56:21.590Z,1.90
2023-02-28T23:58:51.315Z,1.53
